sensor_id;sensor_type;location;lat;lon;timestamp;P1;durP1;ratioP1;P2;durP2;ratioP2
2119;SDS011;1066;52.540;13.420;2022-11-20T00:00:48;18.27;;;11.20;;
2119;SDS011;1066;52.540;13.420;2022-11-20T00:03:14;16.33;;;12.00;;
2119;SDS011;1066;52.540;13.420;2022-11-20T00:05:39;12.67;;;9.63;;
2119;SDS011;1066;52.540;13.420;2022-11-20T00:08:04;15.27;;;11.97;;
2119;SDS011;1066;52.540;13.420;2022-11-20T00:10:30;13.07;;;10.23;;
2119;SDS011;1066;52.540;13.420;2022-11-20T00:12:57;14.00;;;11.13;;
2119;SDS011;1066;52.540;13.420;2022-11-20T00:15:23;15.87;;;11.30;;
2119;SDS011;1066;52.540;13.420;2022-11-20T00:17:48;14.53;;;10.93;;
2119;SDS011;1066;52.540;13.420;2022-11-20T00:20:13;14.23;;;10.80;;
2119;SDS011;1066;52.540;13.420;2022-11-20T00:22:39;17.47;;;10.90;;
2119;SDS011;1066;52.540;13.420;2022-11-20T00:25:04;16.90;;;11.80;;
2119;SDS011;1066;52.540;13.420;2022-11-20T00:27:30;15.23;;;11.43;;
2119;SDS011;1066;52.540;13.420;2022-11-20T00:29:55;19.17;;;11.93;;
2119;SDS011;1066;52.540;13.420;2022-11-20T00:32:20;12.17;;;10.17;;
2119;SDS011;1066;52.540;13.420;2022-11-20T00:34:46;15.80;;;12.17;;
2119;SDS011;1066;52.540;13.420;2022-11-20T00:37:11;18.60;;;12.23;;
2119;SDS011;1066;52.540;13.420;2022-11-20T00:39:36;13.83;;;11.20;;
2119;SDS011;1066;52.540;13.420;2022-11-20T00:42:02;14.57;;;10.40;;
2119;SDS011;1066;52.540;13.420;2022-11-20T00:44:27;19.93;;;11.57;;
2119;SDS011;1066;52.540;13.420;2022-11-20T00:46:52;17.50;;;11.40;;
2119;SDS011;1066;52.540;13.420;2022-11-20T00:49:18;15.60;;;10.37;;
2119;SDS011;1066;52.540;13.420;2022-11-20T00:51:43;14.53;;;10.17;;
2119;SDS011;1066;52.540;13.420;2022-11-20T00:54:08;13.57;;;9.73;;
2119;SDS011;1066;52.540;13.420;2022-11-20T00:56:34;16.53;;;12.20;;
2119;SDS011;1066;52.540;13.420;2022-11-20T00:58:59;13.43;;;11.10;;
2119;SDS011;1066;52.540;13.420;2022-11-20T01:01:26;14.17;;;10.90;;
2119;SDS011;1066;52.540;13.420;2022-11-20T01:03:54;17.23;;;11.70;;
2119;SDS011;1066;52.540;13.420;2022-11-20T01:06:22;15.60;;;10.70;;
2119;SDS011;1066;52.540;13.420;2022-11-20T01:08:49;14.77;;;10.93;;
2119;SDS011;1066;52.540;13.420;2022-11-20T01:11:19;13.90;;;9.83;;
2119;SDS011;1066;52.540;13.420;2022-11-20T01:13:47;16.70;;;11.87;;
2119;SDS011;1066;52.540;13.420;2022-11-20T01:16:14;15.57;;;11.17;;
2119;SDS011;1066;52.540;13.420;2022-11-20T01:18:42;11.50;;;10.27;;
2119;SDS011;1066;52.540;13.420;2022-11-20T01:21:13;16.47;;;10.30;;
2119;SDS011;1066;52.540;13.420;2022-11-20T01:23:40;12.47;;;10.07;;
2119;SDS011;1066;52.540;13.420;2022-11-20T01:26:09;12.70;;;10.40;;
2119;SDS011;1066;52.540;13.420;2022-11-20T01:28:38;31.97;;;11.57;;
2119;SDS011;1066;52.540;13.420;2022-11-20T01:31:10;13.37;;;10.83;;
2119;SDS011;1066;52.540;13.420;2022-11-20T01:33:43;12.60;;;10.90;;
2119;SDS011;1066;52.540;13.420;2022-11-20T01:36:10;17.70;;;11.73;;
2119;SDS011;1066;52.540;13.420;2022-11-20T01:38:36;15.53;;;10.27;;
2119;SDS011;1066;52.540;13.420;2022-11-20T01:41:01;16.47;;;10.90;;
2119;SDS011;1066;52.540;13.420;2022-11-20T01:43:27;16.53;;;11.00;;
2119;SDS011;1066;52.540;13.420;2022-11-20T01:45:58;18.17;;;11.27;;
2119;SDS011;1066;52.540;13.420;2022-11-20T01:48:53;19.37;;;10.30;;
2119;SDS011;1066;52.540;13.420;2022-11-20T01:51:21;13.70;;;10.10;;
2119;SDS011;1066;52.540;13.420;2022-11-20T01:53:53;14.43;;;10.10;;
2119;SDS011;1066;52.540;13.420;2022-11-20T01:56:19;10.83;;;9.00;;
2119;SDS011;1066;52.540;13.420;2022-11-20T01:58:49;11.93;;;9.60;;
2119;SDS011;1066;52.540;13.420;2022-11-20T02:01:16;14.73;;;10.70;;
2119;SDS011;1066;52.540;13.420;2022-11-20T02:03:42;14.17;;;9.77;;
2119;SDS011;1066;52.540;13.420;2022-11-20T02:09:29;15.50;;;10.67;;
2119;SDS011;1066;52.540;13.420;2022-11-20T02:11:55;15.73;;;11.40;;
2119;SDS011;1066;52.540;13.420;2022-11-20T02:14:21;15.40;;;10.10;;
2119;SDS011;1066;52.540;13.420;2022-11-20T02:16:47;13.50;;;10.80;;
2119;SDS011;1066;52.540;13.420;2022-11-20T02:19:21;14.50;;;9.10;;
2119;SDS011;1066;52.540;13.420;2022-11-20T02:24:46;14.13;;;10.33;;
2119;SDS011;1066;52.540;13.420;2022-11-20T02:27:14;13.17;;;10.23;;
2119;SDS011;1066;52.540;13.420;2022-11-20T02:32:19;14.77;;;11.43;;
2119;SDS011;1066;52.540;13.420;2022-11-20T02:34:52;16.33;;;11.53;;
2119;SDS011;1066;52.540;13.420;2022-11-20T02:37:17;18.50;;;10.70;;
2119;SDS011;1066;52.540;13.420;2022-11-20T02:39:44;15.47;;;11.27;;
2119;SDS011;1066;52.540;13.420;2022-11-20T02:42:13;14.93;;;10.70;;
2119;SDS011;1066;52.540;13.420;2022-11-20T02:44:38;14.50;;;10.87;;
2119;SDS011;1066;52.540;13.420;2022-11-20T02:47:04;12.60;;;9.43;;
2119;SDS011;1066;52.540;13.420;2022-11-20T02:49:30;14.37;;;11.20;;
2119;SDS011;1066;52.540;13.420;2022-11-20T02:51:55;14.80;;;11.07;;
2119;SDS011;1066;52.540;13.420;2022-11-20T02:54:20;14.27;;;11.50;;
2119;SDS011;1066;52.540;13.420;2022-11-20T02:56:45;13.30;;;9.97;;
2119;SDS011;1066;52.540;13.420;2022-11-20T02:59:11;16.77;;;12.47;;
2119;SDS011;1066;52.540;13.420;2022-11-20T03:01:36;18.53;;;12.43;;
2119;SDS011;1066;52.540;13.420;2022-11-20T03:04:02;14.67;;;11.20;;
2119;SDS011;1066;52.540;13.420;2022-11-20T03:06:27;11.10;;;9.40;;
2119;SDS011;1066;52.540;13.420;2022-11-20T03:08:52;13.83;;;10.50;;
2119;SDS011;1066;52.540;13.420;2022-11-20T03:11:18;18.90;;;11.83;;
2119;SDS011;1066;52.540;13.420;2022-11-20T03:13:43;11.87;;;10.67;;
2119;SDS011;1066;52.540;13.420;2022-11-20T03:16:12;12.97;;;10.27;;
2119;SDS011;1066;52.540;13.420;2022-11-20T03:18:39;15.70;;;11.53;;
2119;SDS011;1066;52.540;13.420;2022-11-20T03:21:05;16.40;;;10.63;;
2119;SDS011;1066;52.540;13.420;2022-11-20T03:23:31;13.33;;;10.13;;
2119;SDS011;1066;52.540;13.420;2022-11-20T03:26:19;14.83;;;11.87;;
2119;SDS011;1066;52.540;13.420;2022-11-20T03:28:56;15.90;;;11.13;;
2119;SDS011;1066;52.540;13.420;2022-11-20T03:31:24;14.47;;;10.17;;
2119;SDS011;1066;52.540;13.420;2022-11-20T03:33:51;13.10;;;9.90;;
2119;SDS011;1066;52.540;13.420;2022-11-20T03:36:17;16.23;;;11.10;;
2119;SDS011;1066;52.540;13.420;2022-11-20T03:38:43;16.33;;;12.20;;
2119;SDS011;1066;52.540;13.420;2022-11-20T03:41:27;17.40;;;12.67;;
2119;SDS011;1066;52.540;13.420;2022-11-20T03:44:01;16.20;;;11.90;;
2119;SDS011;1066;52.540;13.420;2022-11-20T03:46:28;14.73;;;11.30;;
2119;SDS011;1066;52.540;13.420;2022-11-20T03:48:54;16.23;;;12.10;;
2119;SDS011;1066;52.540;13.420;2022-11-20T03:51:20;14.43;;;10.47;;
2119;SDS011;1066;52.540;13.420;2022-11-20T03:53:53;19.40;;;13.60;;
2119;SDS011;1066;52.540;13.420;2022-11-20T03:56:22;15.37;;;12.33;;
2119;SDS011;1066;52.540;13.420;2022-11-20T03:58:48;17.53;;;11.70;;
2119;SDS011;1066;52.540;13.420;2022-11-20T04:01:14;17.17;;;12.13;;
2119;SDS011;1066;52.540;13.420;2022-11-20T04:03:42;17.00;;;11.57;;
2119;SDS011;1066;52.540;13.420;2022-11-20T04:06:15;15.60;;;11.97;;
2119;SDS011;1066;52.540;13.420;2022-11-20T04:08:44;14.50;;;11.10;;
2119;SDS011;1066;52.540;13.420;2022-11-20T04:13:37;17.43;;;10.90;;
2119;SDS011;1066;52.540;13.420;2022-11-20T04:16:04;14.47;;;10.73;;
2119;SDS011;1066;52.540;13.420;2022-11-20T04:18:30;14.33;;;10.17;;
2119;SDS011;1066;52.540;13.420;2022-11-20T04:20:56;14.30;;;12.03;;
2119;SDS011;1066;52.540;13.420;2022-11-20T04:23:22;15.27;;;11.77;;
2119;SDS011;1066;52.540;13.420;2022-11-20T04:25:47;18.90;;;12.93;;
2119;SDS011;1066;52.540;13.420;2022-11-20T04:28:13;15.83;;;11.43;;
2119;SDS011;1066;52.540;13.420;2022-11-20T04:30:38;14.40;;;10.00;;
2119;SDS011;1066;52.540;13.420;2022-11-20T04:33:04;17.60;;;12.10;;
2119;SDS011;1066;52.540;13.420;2022-11-20T04:35:29;14.70;;;11.27;;
2119;SDS011;1066;52.540;13.420;2022-11-20T04:37:54;13.40;;;10.50;;
2119;SDS011;1066;52.540;13.420;2022-11-20T04:40:20;14.77;;;11.70;;
2119;SDS011;1066;52.540;13.420;2022-11-20T04:42:45;13.87;;;11.07;;
2119;SDS011;1066;52.540;13.420;2022-11-20T04:45:10;14.90;;;10.73;;
2119;SDS011;1066;52.540;13.420;2022-11-20T04:47:36;15.37;;;11.33;;
2119;SDS011;1066;52.540;13.420;2022-11-20T04:50:01;15.70;;;11.30;;
2119;SDS011;1066;52.540;13.420;2022-11-20T04:52:27;15.63;;;12.00;;
2119;SDS011;1066;52.540;13.420;2022-11-20T04:54:52;16.37;;;11.40;;
2119;SDS011;1066;52.540;13.420;2022-11-20T04:57:18;13.83;;;9.87;;
2119;SDS011;1066;52.540;13.420;2022-11-20T04:59:44;14.27;;;10.43;;
2119;SDS011;1066;52.540;13.420;2022-11-20T05:02:09;14.73;;;10.40;;
2119;SDS011;1066;52.540;13.420;2022-11-20T05:04:35;14.20;;;10.10;;
2119;SDS011;1066;52.540;13.420;2022-11-20T05:07:01;15.63;;;11.37;;
2119;SDS011;1066;52.540;13.420;2022-11-20T05:09:26;13.73;;;11.00;;
2119;SDS011;1066;52.540;13.420;2022-11-20T05:11:51;14.67;;;11.13;;
2119;SDS011;1066;52.540;13.420;2022-11-20T05:14:17;15.07;;;10.60;;
2119;SDS011;1066;52.540;13.420;2022-11-20T05:16:42;15.57;;;11.30;;
2119;SDS011;1066;52.540;13.420;2022-11-20T05:19:07;15.90;;;9.97;;
2119;SDS011;1066;52.540;13.420;2022-11-20T05:21:33;14.93;;;11.10;;
2119;SDS011;1066;52.540;13.420;2022-11-20T05:23:58;15.40;;;10.20;;
2119;SDS011;1066;52.540;13.420;2022-11-20T05:26:24;15.07;;;10.30;;
2119;SDS011;1066;52.540;13.420;2022-11-20T05:28:49;14.30;;;10.67;;
2119;SDS011;1066;52.540;13.420;2022-11-20T05:31:16;13.80;;;10.47;;
2119;SDS011;1066;52.540;13.420;2022-11-20T05:33:46;19.90;;;11.33;;
2119;SDS011;1066;52.540;13.420;2022-11-20T05:36:12;16.60;;;10.87;;
2119;SDS011;1066;52.540;13.420;2022-11-20T05:38:38;18.07;;;11.60;;
2119;SDS011;1066;52.540;13.420;2022-11-20T05:43:37;16.60;;;10.97;;
2119;SDS011;1066;52.540;13.420;2022-11-20T05:46:04;13.50;;;10.70;;
2119;SDS011;1066;52.540;13.420;2022-11-20T05:48:30;14.30;;;11.00;;
2119;SDS011;1066;52.540;13.420;2022-11-20T05:50:59;14.67;;;11.00;;
2119;SDS011;1066;52.540;13.420;2022-11-20T05:53:25;16.20;;;12.10;;
2119;SDS011;1066;52.540;13.420;2022-11-20T05:55:58;14.03;;;10.90;;
2119;SDS011;1066;52.540;13.420;2022-11-20T05:58:27;11.70;;;9.07;;
2119;SDS011;1066;52.540;13.420;2022-11-20T06:00:53;12.03;;;10.57;;
2119;SDS011;1066;52.540;13.420;2022-11-20T06:03:19;14.80;;;10.63;;
2119;SDS011;1066;52.540;13.420;2022-11-20T06:05:45;14.30;;;10.20;;
2119;SDS011;1066;52.540;13.420;2022-11-20T06:08:11;13.60;;;9.67;;
2119;SDS011;1066;52.540;13.420;2022-11-20T06:10:36;15.87;;;10.67;;
2119;SDS011;1066;52.540;13.420;2022-11-20T06:13:02;14.60;;;10.17;;
2119;SDS011;1066;52.540;13.420;2022-11-20T06:15:27;12.97;;;9.20;;
2119;SDS011;1066;52.540;13.420;2022-11-20T06:17:53;15.00;;;10.33;;
2119;SDS011;1066;52.540;13.420;2022-11-20T06:20:20;11.90;;;9.60;;
2119;SDS011;1066;52.540;13.420;2022-11-20T06:22:46;13.40;;;11.07;;
2119;SDS011;1066;52.540;13.420;2022-11-20T06:25:12;13.30;;;10.03;;
2119;SDS011;1066;52.540;13.420;2022-11-20T06:27:37;14.97;;;9.30;;
2119;SDS011;1066;52.540;13.420;2022-11-20T06:30:03;11.93;;;10.43;;
2119;SDS011;1066;52.540;13.420;2022-11-20T06:32:29;13.77;;;9.47;;
2119;SDS011;1066;52.540;13.420;2022-11-20T06:34:54;14.50;;;9.73;;
2119;SDS011;1066;52.540;13.420;2022-11-20T06:37:20;13.00;;;9.27;;
2119;SDS011;1066;52.540;13.420;2022-11-20T06:39:45;11.83;;;9.33;;
2119;SDS011;1066;52.540;13.420;2022-11-20T06:42:10;13.17;;;9.83;;
2119;SDS011;1066;52.540;13.420;2022-11-20T06:44:36;17.90;;;11.10;;
2119;SDS011;1066;52.540;13.420;2022-11-20T06:47:01;11.63;;;9.57;;
2119;SDS011;1066;52.540;13.420;2022-11-20T06:49:26;14.57;;;9.63;;
2119;SDS011;1066;52.540;13.420;2022-11-20T06:51:51;15.40;;;9.63;;
2119;SDS011;1066;52.540;13.420;2022-11-20T06:54:17;11.23;;;9.90;;
2119;SDS011;1066;52.540;13.420;2022-11-20T06:56:42;14.30;;;9.63;;
2119;SDS011;1066;52.540;13.420;2022-11-20T06:59:11;15.37;;;9.57;;
2119;SDS011;1066;52.540;13.420;2022-11-20T07:01:37;10.30;;;8.37;;
2119;SDS011;1066;52.540;13.420;2022-11-20T07:04:02;13.27;;;10.17;;
2119;SDS011;1066;52.540;13.420;2022-11-20T07:06:28;12.97;;;9.53;;
2119;SDS011;1066;52.540;13.420;2022-11-20T07:08:53;12.67;;;9.07;;
2119;SDS011;1066;52.540;13.420;2022-11-20T07:11:18;16.33;;;10.93;;
2119;SDS011;1066;52.540;13.420;2022-11-20T07:13:44;12.20;;;9.53;;
2119;SDS011;1066;52.540;13.420;2022-11-20T07:16:09;14.60;;;10.47;;
2119;SDS011;1066;52.540;13.420;2022-11-20T07:18:35;16.40;;;11.23;;
2119;SDS011;1066;52.540;13.420;2022-11-20T07:21:01;13.17;;;9.30;;
2119;SDS011;1066;52.540;13.420;2022-11-20T07:23:31;11.67;;;8.50;;
2119;SDS011;1066;52.540;13.420;2022-11-20T07:25:56;13.50;;;10.93;;
2119;SDS011;1066;52.540;13.420;2022-11-20T07:28:21;13.47;;;9.00;;
2119;SDS011;1066;52.540;13.420;2022-11-20T07:30:53;13.10;;;10.50;;
2119;SDS011;1066;52.540;13.420;2022-11-20T07:33:18;12.90;;;10.87;;
2119;SDS011;1066;52.540;13.420;2022-11-20T07:35:44;12.83;;;10.13;;
2119;SDS011;1066;52.540;13.420;2022-11-20T07:38:10;13.03;;;11.07;;
2119;SDS011;1066;52.540;13.420;2022-11-20T07:40:36;16.30;;;10.80;;
2119;SDS011;1066;52.540;13.420;2022-11-20T07:43:01;15.13;;;11.10;;
2119;SDS011;1066;52.540;13.420;2022-11-20T07:45:27;18.63;;;13.07;;
2119;SDS011;1066;52.540;13.420;2022-11-20T07:47:52;14.33;;;9.93;;
2119;SDS011;1066;52.540;13.420;2022-11-20T07:50:18;14.23;;;9.70;;
2119;SDS011;1066;52.540;13.420;2022-11-20T07:52:43;12.47;;;10.70;;
2119;SDS011;1066;52.540;13.420;2022-11-20T07:55:09;15.73;;;11.77;;
2119;SDS011;1066;52.540;13.420;2022-11-20T07:57:35;13.97;;;11.43;;
2119;SDS011;1066;52.540;13.420;2022-11-20T08:00:02;13.50;;;11.70;;
2119;SDS011;1066;52.540;13.420;2022-11-20T08:02:29;15.53;;;11.37;;
2119;SDS011;1066;52.540;13.420;2022-11-20T08:04:54;15.27;;;10.97;;
2119;SDS011;1066;52.540;13.420;2022-11-20T08:07:20;15.03;;;11.40;;
2119;SDS011;1066;52.540;13.420;2022-11-20T08:09:46;15.30;;;10.80;;
2119;SDS011;1066;52.540;13.420;2022-11-20T08:12:16;14.40;;;11.63;;
2119;SDS011;1066;52.540;13.420;2022-11-20T08:15:02;12.40;;;10.37;;
2119;SDS011;1066;52.540;13.420;2022-11-20T08:17:28;16.50;;;12.40;;
2119;SDS011;1066;52.540;13.420;2022-11-20T08:19:54;15.23;;;11.90;;
2119;SDS011;1066;52.540;13.420;2022-11-20T08:22:20;14.33;;;10.60;;
2119;SDS011;1066;52.540;13.420;2022-11-20T08:24:45;16.10;;;13.27;;
2119;SDS011;1066;52.540;13.420;2022-11-20T08:27:12;28.10;;;12.30;;
2119;SDS011;1066;52.540;13.420;2022-11-20T08:29:37;14.20;;;10.80;;
2119;SDS011;1066;52.540;13.420;2022-11-20T08:32:03;14.47;;;11.10;;
2119;SDS011;1066;52.540;13.420;2022-11-20T08:34:32;12.87;;;10.73;;
2119;SDS011;1066;52.540;13.420;2022-11-20T08:36:58;16.23;;;11.93;;
2119;SDS011;1066;52.540;13.420;2022-11-20T08:39:24;13.70;;;11.50;;
2119;SDS011;1066;52.540;13.420;2022-11-20T08:41:49;13.37;;;11.70;;
2119;SDS011;1066;52.540;13.420;2022-11-20T08:44:15;14.57;;;11.17;;
2119;SDS011;1066;52.540;13.420;2022-11-20T08:46:41;15.13;;;11.60;;
2119;SDS011;1066;52.540;13.420;2022-11-20T08:49:09;19.67;;;11.97;;
2119;SDS011;1066;52.540;13.420;2022-11-20T08:51:36;14.07;;;11.80;;
2119;SDS011;1066;52.540;13.420;2022-11-20T08:54:02;15.20;;;12.00;;
2119;SDS011;1066;52.540;13.420;2022-11-20T08:56:28;18.63;;;12.10;;
2119;SDS011;1066;52.540;13.420;2022-11-20T08:58:54;17.00;;;12.30;;
2119;SDS011;1066;52.540;13.420;2022-11-20T09:01:20;20.10;;;11.70;;
2119;SDS011;1066;52.540;13.420;2022-11-20T09:03:47;16.90;;;12.00;;
2119;SDS011;1066;52.540;13.420;2022-11-20T09:06:13;17.70;;;12.30;;
2119;SDS011;1066;52.540;13.420;2022-11-20T09:08:39;22.40;;;14.00;;
2119;SDS011;1066;52.540;13.420;2022-11-20T09:11:05;16.50;;;11.27;;
2119;SDS011;1066;52.540;13.420;2022-11-20T09:13:32;19.50;;;12.53;;
2119;SDS011;1066;52.540;13.420;2022-11-20T09:16:00;18.10;;;12.00;;
2119;SDS011;1066;52.540;13.420;2022-11-20T09:18:27;17.60;;;12.53;;
2119;SDS011;1066;52.540;13.420;2022-11-20T09:20:57;14.93;;;10.63;;
2119;SDS011;1066;52.540;13.420;2022-11-20T09:23:26;16.03;;;12.10;;
2119;SDS011;1066;52.540;13.420;2022-11-20T09:25:55;19.30;;;13.43;;
2119;SDS011;1066;52.540;13.420;2022-11-20T09:28:24;14.40;;;11.97;;
2119;SDS011;1066;52.540;13.420;2022-11-20T09:30:51;15.80;;;11.63;;
2119;SDS011;1066;52.540;13.420;2022-11-20T09:33:16;15.30;;;11.50;;
2119;SDS011;1066;52.540;13.420;2022-11-20T09:35:43;15.17;;;10.87;;
2119;SDS011;1066;52.540;13.420;2022-11-20T09:38:09;17.50;;;11.33;;
2119;SDS011;1066;52.540;13.420;2022-11-20T09:40:37;14.40;;;11.70;;
2119;SDS011;1066;52.540;13.420;2022-11-20T09:54:25;15.20;;;11.43;;
2119;SDS011;1066;52.540;13.420;2022-11-20T09:56:57;16.30;;;12.10;;
2119;SDS011;1066;52.540;13.420;2022-11-20T09:59:41;15.87;;;11.50;;
2119;SDS011;1066;52.540;13.420;2022-11-20T10:07:36;18.03;;;11.97;;
2119;SDS011;1066;52.540;13.420;2022-11-20T10:10:05;18.97;;;12.90;;
2119;SDS011;1066;52.540;13.420;2022-11-20T10:12:55;17.70;;;11.87;;
2119;SDS011;1066;52.540;13.420;2022-11-20T10:20:52;15.70;;;11.80;;
2119;SDS011;1066;52.540;13.420;2022-11-20T10:23:27;14.37;;;10.43;;
2119;SDS011;1066;52.540;13.420;2022-11-20T10:34:30;16.23;;;11.20;;
2119;SDS011;1066;52.540;13.420;2022-11-20T10:37:23;13.13;;;9.70;;
2119;SDS011;1066;52.540;13.420;2022-11-20T10:42:45;11.53;;;9.70;;
2119;SDS011;1066;52.540;13.420;2022-11-20T10:45:18;14.67;;;9.90;;
2119;SDS011;1066;52.540;13.420;2022-11-20T10:47:49;15.90;;;11.27;;
2119;SDS011;1066;52.540;13.420;2022-11-20T10:50:18;9.87;;;8.30;;
2119;SDS011;1066;52.540;13.420;2022-11-20T10:55:50;11.60;;;9.00;;
2119;SDS011;1066;52.540;13.420;2022-11-20T11:01:19;13.70;;;10.07;;
2119;SDS011;1066;52.540;13.420;2022-11-20T11:03:48;16.83;;;10.97;;
2119;SDS011;1066;52.540;13.420;2022-11-20T11:08:44;14.50;;;11.03;;
2119;SDS011;1066;52.540;13.420;2022-11-20T11:11:20;14.33;;;11.43;;
2119;SDS011;1066;52.540;13.420;2022-11-20T11:13:48;14.80;;;11.17;;
2119;SDS011;1066;52.540;13.420;2022-11-20T11:16:24;18.00;;;10.53;;
2119;SDS011;1066;52.540;13.420;2022-11-20T11:18:50;14.43;;;10.43;;
2119;SDS011;1066;52.540;13.420;2022-11-20T11:21:23;14.20;;;10.30;;
2119;SDS011;1066;52.540;13.420;2022-11-20T11:23:57;15.83;;;10.77;;
2119;SDS011;1066;52.540;13.420;2022-11-20T11:26:24;13.10;;;9.63;;
2119;SDS011;1066;52.540;13.420;2022-11-20T11:28:58;17.40;;;10.07;;
2119;SDS011;1066;52.540;13.420;2022-11-20T11:31:25;13.90;;;10.90;;
2119;SDS011;1066;52.540;13.420;2022-11-20T11:34:05;12.30;;;10.43;;
2119;SDS011;1066;52.540;13.420;2022-11-20T11:36:36;15.10;;;11.10;;
2119;SDS011;1066;52.540;13.420;2022-11-20T11:39:02;14.53;;;9.87;;
2119;SDS011;1066;52.540;13.420;2022-11-20T11:41:30;12.87;;;10.50;;
2119;SDS011;1066;52.540;13.420;2022-11-20T11:47:25;13.50;;;10.03;;
2119;SDS011;1066;52.540;13.420;2022-11-20T11:52:43;11.33;;;9.43;;
2119;SDS011;1066;52.540;13.420;2022-11-20T11:55:13;13.40;;;9.80;;
2119;SDS011;1066;52.540;13.420;2022-11-20T11:57:47;13.70;;;10.63;;
2119;SDS011;1066;52.540;13.420;2022-11-20T12:00:16;13.90;;;9.63;;
2119;SDS011;1066;52.540;13.420;2022-11-20T12:05:19;11.40;;;9.57;;
2119;SDS011;1066;52.540;13.420;2022-11-20T12:07:47;12.93;;;10.83;;
2119;SDS011;1066;52.540;13.420;2022-11-20T12:10:17;16.57;;;10.57;;
2119;SDS011;1066;52.540;13.420;2022-11-20T12:12:46;12.67;;;9.47;;
2119;SDS011;1066;52.540;13.420;2022-11-20T12:15:24;15.57;;;9.60;;
2119;SDS011;1066;52.540;13.420;2022-11-20T12:17:51;12.97;;;9.73;;
2119;SDS011;1066;52.540;13.420;2022-11-20T12:20:17;14.60;;;10.60;;
2119;SDS011;1066;52.540;13.420;2022-11-20T12:22:54;12.33;;;10.73;;
2119;SDS011;1066;52.540;13.420;2022-11-20T12:25:26;12.07;;;9.50;;
2119;SDS011;1066;52.540;13.420;2022-11-20T12:28:02;13.80;;;9.67;;
2119;SDS011;1066;52.540;13.420;2022-11-20T12:30:33;11.67;;;8.90;;
2119;SDS011;1066;52.540;13.420;2022-11-20T12:33:21;12.60;;;9.10;;
2119;SDS011;1066;52.540;13.420;2022-11-20T12:35:57;10.40;;;8.60;;
2119;SDS011;1066;52.540;13.420;2022-11-20T12:52:38;9.27;;;7.20;;
2119;SDS011;1066;52.540;13.420;2022-11-20T12:55:11;9.43;;;8.40;;
2119;SDS011;1066;52.540;13.420;2022-11-20T13:00:16;10.90;;;7.93;;
2119;SDS011;1066;52.540;13.420;2022-11-20T13:08:16;12.03;;;8.70;;
2119;SDS011;1066;52.540;13.420;2022-11-20T13:13:15;9.00;;;7.27;;
2119;SDS011;1066;52.540;13.420;2022-11-20T13:15:48;9.93;;;7.87;;
2119;SDS011;1066;52.540;13.420;2022-11-20T13:18:26;19.77;;;13.10;;
2119;SDS011;1066;52.540;13.420;2022-11-20T13:20:52;11.87;;;8.57;;
2119;SDS011;1066;52.540;13.420;2022-11-20T13:23:25;11.00;;;7.70;;
2119;SDS011;1066;52.540;13.420;2022-11-20T13:26:02;9.97;;;7.60;;
2119;SDS011;1066;52.540;13.420;2022-11-20T13:28:29;13.10;;;7.77;;
2119;SDS011;1066;52.540;13.420;2022-11-20T13:30:55;12.50;;;6.50;;
2119;SDS011;1066;52.540;13.420;2022-11-20T13:38:24;8.47;;;6.83;;
2119;SDS011;1066;52.540;13.420;2022-11-20T13:41:00;10.97;;;8.13;;
2119;SDS011;1066;52.540;13.420;2022-11-20T13:43:46;9.30;;;7.53;;
2119;SDS011;1066;52.540;13.420;2022-11-20T13:46:12;9.03;;;7.93;;
2119;SDS011;1066;52.540;13.420;2022-11-20T13:48:41;10.77;;;7.73;;
2119;SDS011;1066;52.540;13.420;2022-11-20T13:54:14;10.07;;;8.00;;
2119;SDS011;1066;52.540;13.420;2022-11-20T14:02:14;7.37;;;6.30;;
2119;SDS011;1066;52.540;13.420;2022-11-20T14:04:51;11.77;;;7.70;;
2119;SDS011;1066;52.540;13.420;2022-11-20T14:07:18;12.17;;;8.57;;
2119;SDS011;1066;52.540;13.420;2022-11-20T14:09:49;11.20;;;8.80;;
2119;SDS011;1066;52.540;13.420;2022-11-20T14:12:31;9.10;;;8.07;;
2119;SDS011;1066;52.540;13.420;2022-11-20T14:14:57;12.63;;;8.77;;
2119;SDS011;1066;52.540;13.420;2022-11-20T14:17:24;12.53;;;9.07;;
2119;SDS011;1066;52.540;13.420;2022-11-20T14:19:59;13.13;;;8.67;;
2119;SDS011;1066;52.540;13.420;2022-11-20T14:22:27;11.93;;;8.33;;
2119;SDS011;1066;52.540;13.420;2022-11-20T14:27:38;14.77;;;9.87;;
2119;SDS011;1066;52.540;13.420;2022-11-20T14:30:05;14.40;;;11.70;;
2119;SDS011;1066;52.540;13.420;2022-11-20T14:32:31;14.40;;;9.20;;
2119;SDS011;1066;52.540;13.420;2022-11-20T14:35:01;13.10;;;9.40;;
2119;SDS011;1066;52.540;13.420;2022-11-20T14:37:36;11.87;;;8.40;;
2119;SDS011;1066;52.540;13.420;2022-11-20T14:40:02;10.23;;;8.20;;
2119;SDS011;1066;52.540;13.420;2022-11-20T14:42:30;13.80;;;9.83;;
2119;SDS011;1066;52.540;13.420;2022-11-20T14:44:56;10.70;;;8.10;;
2119;SDS011;1066;52.540;13.420;2022-11-20T14:47:24;11.83;;;7.97;;
2119;SDS011;1066;52.540;13.420;2022-11-20T14:49:51;11.73;;;8.20;;
2119;SDS011;1066;52.540;13.420;2022-11-20T14:52:21;14.00;;;7.90;;
2119;SDS011;1066;52.540;13.420;2022-11-20T14:54:52;13.00;;;9.93;;
2119;SDS011;1066;52.540;13.420;2022-11-20T15:02:41;10.00;;;8.13;;
2119;SDS011;1066;52.540;13.420;2022-11-20T15:05:07;12.27;;;8.97;;
2119;SDS011;1066;52.540;13.420;2022-11-20T15:07:36;11.23;;;8.20;;
2119;SDS011;1066;52.540;13.420;2022-11-20T15:12:32;13.20;;;7.77;;
2119;SDS011;1066;52.540;13.420;2022-11-20T15:15:01;10.87;;;8.50;;
2119;SDS011;1066;52.540;13.420;2022-11-20T15:17:28;11.70;;;7.70;;
2119;SDS011;1066;52.540;13.420;2022-11-20T15:19:54;13.00;;;8.53;;
2119;SDS011;1066;52.540;13.420;2022-11-20T15:22:20;12.10;;;8.30;;
2119;SDS011;1066;52.540;13.420;2022-11-20T15:24:45;11.00;;;8.40;;
2119;SDS011;1066;52.540;13.420;2022-11-20T15:27:11;9.90;;;8.03;;
2119;SDS011;1066;52.540;13.420;2022-11-20T15:29:37;15.10;;;9.13;;
2119;SDS011;1066;52.540;13.420;2022-11-20T15:32:02;10.03;;;7.50;;
2119;SDS011;1066;52.540;13.420;2022-11-20T15:34:28;12.27;;;8.77;;
2119;SDS011;1066;52.540;13.420;2022-11-20T15:36:53;13.80;;;8.70;;
2119;SDS011;1066;52.540;13.420;2022-11-20T15:39:19;9.20;;;8.30;;
2119;SDS011;1066;52.540;13.420;2022-11-20T15:41:45;10.50;;;7.93;;
2119;SDS011;1066;52.540;13.420;2022-11-20T15:44:10;13.33;;;8.90;;
2119;SDS011;1066;52.540;13.420;2022-11-20T15:46:36;13.50;;;8.10;;
2119;SDS011;1066;52.540;13.420;2022-11-20T15:49:05;9.33;;;7.77;;
2119;SDS011;1066;52.540;13.420;2022-11-20T15:51:31;10.40;;;7.73;;
2119;SDS011;1066;52.540;13.420;2022-11-20T15:53:59;12.97;;;8.97;;
2119;SDS011;1066;52.540;13.420;2022-11-20T15:56:24;12.23;;;9.20;;
2119;SDS011;1066;52.540;13.420;2022-11-20T15:58:51;8.67;;;7.23;;
2119;SDS011;1066;52.540;13.420;2022-11-20T16:01:17;11.57;;;8.60;;
2119;SDS011;1066;52.540;13.420;2022-11-20T16:03:43;9.97;;;8.43;;
2119;SDS011;1066;52.540;13.420;2022-11-20T16:06:09;10.17;;;8.83;;
2119;SDS011;1066;52.540;13.420;2022-11-20T16:08:35;11.17;;;7.50;;
2119;SDS011;1066;52.540;13.420;2022-11-20T16:11:00;13.13;;;9.40;;
2119;SDS011;1066;52.540;13.420;2022-11-20T16:13:26;10.90;;;8.23;;
2119;SDS011;1066;52.540;13.420;2022-11-20T16:16:18;12.33;;;8.07;;
2119;SDS011;1066;52.540;13.420;2022-11-20T16:18:48;9.93;;;6.93;;
2119;SDS011;1066;52.540;13.420;2022-11-20T16:21:14;10.93;;;8.43;;
2119;SDS011;1066;52.540;13.420;2022-11-20T16:23:40;11.20;;;7.63;;
2119;SDS011;1066;52.540;13.420;2022-11-20T16:26:09;9.00;;;7.40;;
2119;SDS011;1066;52.540;13.420;2022-11-20T16:28:37;9.70;;;7.43;;
2119;SDS011;1066;52.540;13.420;2022-11-20T16:31:12;11.37;;;9.10;;
2119;SDS011;1066;52.540;13.420;2022-11-20T16:33:39;10.70;;;8.07;;
2119;SDS011;1066;52.540;13.420;2022-11-20T16:36:12;10.20;;;7.37;;
2119;SDS011;1066;52.540;13.420;2022-11-20T16:38:38;9.40;;;8.10;;